createdAt,value
2018-03-21T00:01:53.655Z,4.80
2018-03-21T00:04:22.828Z,4.70
2018-03-21T00:06:51.995Z,4.67
2018-03-21T00:09:21.189Z,4.20
2018-03-21T00:11:50.352Z,4.73
2018-03-21T00:14:19.510Z,4.70
2018-03-21T00:16:48.708Z,4.97
2018-03-21T00:19:17.857Z,4.43
2018-03-21T00:21:47.025Z,4.40
2018-03-21T00:24:16.172Z,4.40
2018-03-21T00:26:45.340Z,4.90
2018-03-21T00:29:14.488Z,4.43
2018-03-21T00:31:43.672Z,4.53
2018-03-21T00:34:12.824Z,4.40
2018-03-21T00:36:42.008Z,3.63
2018-03-21T00:39:11.159Z,4.40
2018-03-21T00:41:40.324Z,4.30
2018-03-21T00:44:09.468Z,3.77
2018-03-21T00:46:38.648Z,4.23
2018-03-21T00:49:07.859Z,4.70
2018-03-21T00:51:37.039Z,3.83
2018-03-21T00:54:06.183Z,4.50
2018-03-21T00:56:35.348Z,4.60
2018-03-21T00:59:04.508Z,4.77
2018-03-21T01:01:33.736Z,5.07
2018-03-21T01:04:02.890Z,4.47
2018-03-21T01:06:32.060Z,4.37
2018-03-21T01:09:01.216Z,4.97
2018-03-21T01:11:30.420Z,4.77
2018-03-21T01:13:59.579Z,3.80
2018-03-21T01:16:28.756Z,4.77
2018-03-21T01:18:57.903Z,4.53
2018-03-21T01:21:27.076Z,5.07
2018-03-21T01:23:56.233Z,5.13
2018-03-21T01:26:25.422Z,4.50
2018-03-21T01:28:54.632Z,4.60
2018-03-21T01:31:23.759Z,4.43
2018-03-21T01:33:52.912Z,4.30
2018-03-21T01:36:22.088Z,4.17
2018-03-21T01:38:51.257Z,5.33
2018-03-21T01:41:20.439Z,4.60
2018-03-21T01:43:49.595Z,4.80
2018-03-21T01:46:18.776Z,4.30
2018-03-21T01:48:47.929Z,4.20
2018-03-21T01:51:17.111Z,4.27
2018-03-21T01:53:47.184Z,4.30
2018-03-21T01:56:16.395Z,4.03
2018-03-21T01:58:45.573Z,4.43
2018-03-21T02:01:14.758Z,4.33
2018-03-21T02:03:43.916Z,3.83
2018-03-21T02:06:13.091Z,4.57
2018-03-21T02:08:42.272Z,4.57
2018-03-21T02:11:11.456Z,4.47
2018-03-21T02:13:40.605Z,4.40
2018-03-21T02:16:09.781Z,4.20
2018-03-21T02:18:38.928Z,4.27
2018-03-21T02:21:08.100Z,4.23
2018-03-21T02:23:37.272Z,4.60
2018-03-21T02:26:06.448Z,5.00
2018-03-21T02:28:35.599Z,4.33
2018-03-21T02:31:04.794Z,4.30
2018-03-21T02:33:33.952Z,4.60
2018-03-21T02:36:03.122Z,4.03
2018-03-21T02:38:32.309Z,3.80
2018-03-21T02:41:01.507Z,4.27
2018-03-21T02:43:30.670Z,4.00
2018-03-21T02:45:59.851Z,3.97
2018-03-21T02:48:29.005Z,4.30
2018-03-21T02:50:58.201Z,4.43
2018-03-21T02:53:27.361Z,4.33
2018-03-21T02:55:56.536Z,4.53
2018-03-21T02:58:25.694Z,4.00
2018-03-21T03:00:54.869Z,4.30
2018-03-21T03:03:24.033Z,4.27
2018-03-21T03:05:53.222Z,4.00
2018-03-21T03:08:22.385Z,4.27
2018-03-21T03:10:51.557Z,4.00
2018-03-21T03:13:20.713Z,4.03
2018-03-21T03:15:49.900Z,3.93
2018-03-21T03:18:19.073Z,3.93
2018-03-21T03:20:48.264Z,4.30
2018-03-21T03:23:17.425Z,4.80
2018-03-21T03:25:46.599Z,5.20
2018-03-21T03:28:15.756Z,4.83
2018-03-21T03:30:44.937Z,5.43
2018-03-21T03:33:14.111Z,4.80
2018-03-21T03:35:43.293Z,5.13
2018-03-21T03:38:12.449Z,4.60
2018-03-21T03:40:41.629Z,4.70
2018-03-21T03:43:10.828Z,4.50
2018-03-21T03:45:40.013Z,4.57
2018-03-21T03:48:09.185Z,4.60
2018-03-21T03:50:38.365Z,4.80
2018-03-21T03:53:07.524Z,4.70
2018-03-21T03:55:36.720Z,4.63
2018-03-21T03:58:05.879Z,5.30
2018-03-21T04:00:35.062Z,5.37
2018-03-21T04:03:04.227Z,4.80
2018-03-21T04:05:33.428Z,5.47
2018-03-21T04:08:02.594Z,5.03
2018-03-21T04:10:31.752Z,4.90
2018-03-21T04:13:00.924Z,5.47
2018-03-21T04:15:30.096Z,4.60
2018-03-21T04:17:59.280Z,4.83
2018-03-21T04:20:28.449Z,5.17
2018-03-21T04:22:57.630Z,4.23
2018-03-21T04:25:26.797Z,5.00
2018-03-21T04:27:55.987Z,4.63
2018-03-21T04:30:25.139Z,4.73
2018-03-21T04:32:54.322Z,4.30
2018-03-21T04:35:23.484Z,5.63
2018-03-21T04:37:52.656Z,4.77
2018-03-21T04:40:21.825Z,4.90
2018-03-21T04:42:51.002Z,4.40
2018-03-21T04:45:20.167Z,4.50
2018-03-21T04:47:49.351Z,5.03
2018-03-21T04:50:18.524Z,4.30
2018-03-21T04:52:47.702Z,5.37
2018-03-21T04:55:16.860Z,4.43
2018-03-21T04:57:46.043Z,4.67
2018-03-21T05:00:15.229Z,4.93
2018-03-21T05:02:44.417Z,4.37
2018-03-21T05:05:13.573Z,4.80
2018-03-21T05:07:42.749Z,4.90
2018-03-21T05:10:11.909Z,5.10
2018-03-21T05:12:41.091Z,4.80
2018-03-21T05:15:10.261Z,5.23
2018-03-21T05:17:39.431Z,5.87
2018-03-21T05:20:08.588Z,5.20
2018-03-21T05:22:37.765Z,4.73
2018-03-21T05:25:06.923Z,4.30
2018-03-21T05:27:36.104Z,4.73
2018-03-21T05:30:05.255Z,5.43
2018-03-21T05:32:34.428Z,4.67
2018-03-21T05:35:03.902Z,5.43
2018-03-21T05:37:33.080Z,4.77
2018-03-21T05:40:02.228Z,4.90
2018-03-21T05:42:31.452Z,6.20
2018-03-21T05:45:00.609Z,4.90
2018-03-21T05:47:29.784Z,4.70
2018-03-21T05:49:58.936Z,4.17
2018-03-21T05:52:28.134Z,4.80
2018-03-21T05:54:57.300Z,5.00
2018-03-21T05:57:26.475Z,5.77
2018-03-21T05:59:55.637Z,4.50
2018-03-21T06:02:24.817Z,4.80
2018-03-21T06:04:53.979Z,4.87
2018-03-21T06:07:23.167Z,4.20
2018-03-21T06:09:52.324Z,4.00
2018-03-21T06:12:21.498Z,4.40
2018-03-21T06:14:50.654Z,4.23
2018-03-21T06:17:19.835Z,5.27
2018-03-21T06:19:48.989Z,19.23
2018-03-21T06:22:18.173Z,10.37
2018-03-21T06:24:47.345Z,7.60
2018-03-21T06:27:16.516Z,5.83
2018-03-21T06:29:45.673Z,6.70
2018-03-21T06:32:14.840Z,4.20
2018-03-21T06:34:44.006Z,5.43
2018-03-21T06:37:13.179Z,5.57
2018-03-21T06:39:42.336Z,7.57
2018-03-21T06:42:11.510Z,4.80
2018-03-21T06:44:40.673Z,4.87
2018-03-21T06:47:09.877Z,5.50
2018-03-21T06:49:39.046Z,8.90
2018-03-21T06:52:08.233Z,5.53
2018-03-21T06:54:37.388Z,5.70
2018-03-21T06:57:06.569Z,6.33
2018-03-21T06:59:35.729Z,5.13
2018-03-21T07:02:04.912Z,5.70
2018-03-21T07:04:34.076Z,6.00
2018-03-21T07:07:03.247Z,5.23
2018-03-21T07:09:32.400Z,5.90
2018-03-21T07:12:01.581Z,5.33
2018-03-21T07:14:36.528Z,5.83
2018-03-21T07:17:05.708Z,6.87
2018-03-21T07:19:34.864Z,6.00
2018-03-21T07:22:04.073Z,5.90
2018-03-21T07:24:33.233Z,6.73
2018-03-21T07:27:02.414Z,4.57
2018-03-21T07:29:31.576Z,4.53
2018-03-21T07:32:00.808Z,4.70
2018-03-21T07:34:29.976Z,4.20
2018-03-21T07:36:59.173Z,4.67
2018-03-21T07:39:28.335Z,4.97
2018-03-21T07:41:57.531Z,4.70
2018-03-21T07:44:26.779Z,4.73
2018-03-21T07:46:57.183Z,4.43
2018-03-21T07:49:26.345Z,4.03
2018-03-21T07:51:55.516Z,4.03
2018-03-21T07:54:25.507Z,4.23
2018-03-21T07:56:54.672Z,3.77
2018-03-21T07:59:23.844Z,3.90
2018-03-21T08:01:53.009Z,4.90
2018-03-21T08:04:22.196Z,4.00
2018-03-21T08:06:51.364Z,4.07
2018-03-21T08:09:20.535Z,4.07
2018-03-21T08:11:49.700Z,4.03
2018-03-21T08:14:18.868Z,4.03
2018-03-21T08:16:48.024Z,4.43
2018-03-21T08:19:17.201Z,4.63
2018-03-21T08:21:46.356Z,4.33
2018-03-21T08:24:15.545Z,4.27
2018-03-21T08:26:44.713Z,5.60
2018-03-21T08:29:13.880Z,6.73
2018-03-21T08:31:43.048Z,6.87
2018-03-21T08:34:12.252Z,7.03
2018-03-21T08:36:41.417Z,7.40
2018-03-21T08:39:10.599Z,6.90
2018-03-21T08:41:39.758Z,6.70
2018-03-21T08:44:08.932Z,6.33
2018-03-21T08:46:38.109Z,6.83
2018-03-21T08:49:07.308Z,5.43
2018-03-21T08:51:36.460Z,6.00
2018-03-21T08:54:05.680Z,6.20
2018-03-21T08:56:34.834Z,6.60
2018-03-21T08:59:04.009Z,6.57
2018-03-21T09:01:33.176Z,6.10
2018-03-21T09:04:02.348Z,6.47
2018-03-21T09:06:31.515Z,7.77
2018-03-21T09:09:00.700Z,6.83
2018-03-21T09:11:29.861Z,7.23
2018-03-21T09:13:59.043Z,7.00
2018-03-21T09:16:28.215Z,7.07
2018-03-21T09:18:57.397Z,6.90
2018-03-21T09:21:26.570Z,7.20
2018-03-21T09:23:55.757Z,7.33
2018-03-21T09:26:24.965Z,7.00
2018-03-21T09:28:54.145Z,6.90
2018-03-21T09:31:23.296Z,6.50
2018-03-21T09:33:52.468Z,6.77
2018-03-21T09:36:21.625Z,6.50
2018-03-21T09:38:50.816Z,6.43
2018-03-21T09:41:19.971Z,6.83
2018-03-21T09:43:49.145Z,6.60
2018-03-21T09:46:18.305Z,5.60
2018-03-21T09:48:47.485Z,5.80
2018-03-21T09:51:16.654Z,5.03
2018-03-21T09:53:45.835Z,5.33
2018-03-21T09:56:14.998Z,5.63
2018-03-21T09:58:44.176Z,5.57
2018-03-21T10:01:13.332Z,6.57
2018-03-21T10:03:42.517Z,6.10
2018-03-21T10:06:11.677Z,6.10
2018-03-21T10:08:40.916Z,6.37
2018-03-21T10:11:10.045Z,6.07
2018-03-21T10:13:39.211Z,6.73
2018-03-21T10:16:08.377Z,6.87
2018-03-21T10:18:37.553Z,6.23
2018-03-21T10:21:06.741Z,6.60
2018-03-21T10:23:35.917Z,6.13
2018-03-21T10:26:05.090Z,7.00
2018-03-21T10:28:34.277Z,6.47
2018-03-21T10:31:03.434Z,6.80
2018-03-21T10:33:32.628Z,6.93
2018-03-21T10:36:01.789Z,7.87
2018-03-21T10:38:30.965Z,7.20
2018-03-21T10:41:00.120Z,7.43
2018-03-21T10:43:29.294Z,6.97
2018-03-21T10:45:58.470Z,7.20
2018-03-21T10:48:27.702Z,6.87
2018-03-21T10:50:56.863Z,7.30
2018-03-21T10:53:26.085Z,7.73
2018-03-21T10:55:55.225Z,7.60
2018-03-21T10:58:24.413Z,7.83
2018-03-21T11:00:53.580Z,7.30
2018-03-21T11:03:22.760Z,8.00
2018-03-21T11:05:51.965Z,7.17
2018-03-21T11:08:21.131Z,8.37
2018-03-21T11:10:50.297Z,6.90
2018-03-21T11:13:19.472Z,7.73
2018-03-21T11:15:48.628Z,7.57
2018-03-21T11:18:17.816Z,7.63
2018-03-21T11:20:46.968Z,7.17
2018-03-21T11:23:16.167Z,7.90
2018-03-21T11:25:45.348Z,7.70
2018-03-21T11:28:14.504Z,8.00
2018-03-21T11:30:43.685Z,7.57
2018-03-21T11:33:12.894Z,8.07
2018-03-21T11:35:42.077Z,8.03
2018-03-21T11:38:11.233Z,8.27
2018-03-21T11:40:40.697Z,7.60
2018-03-21T11:43:09.869Z,8.00
2018-03-21T11:45:39.056Z,8.67
2018-03-21T11:48:08.213Z,7.67
2018-03-21T11:50:37.388Z,7.90
2018-03-21T11:53:06.544Z,8.10
2018-03-21T11:55:35.735Z,7.57
2018-03-21T11:58:04.903Z,7.83
2018-03-21T12:00:34.072Z,7.40
2018-03-21T12:03:03.237Z,7.13
2018-03-21T12:05:32.414Z,6.87
2018-03-21T12:08:01.573Z,6.70
2018-03-21T12:10:30.761Z,7.10
2018-03-21T12:12:59.925Z,7.27
2018-03-21T12:15:29.105Z,7.00
2018-03-21T12:17:58.269Z,7.43
2018-03-21T12:20:27.448Z,7.43
2018-03-21T12:22:56.617Z,7.70
2018-03-21T12:25:25.793Z,7.43
2018-03-21T12:27:54.953Z,7.80
2018-03-21T12:30:24.137Z,8.23
2018-03-21T12:32:53.324Z,6.57
2018-03-21T12:35:22.516Z,6.30
2018-03-21T12:37:51.672Z,7.53
2018-03-21T12:40:20.865Z,7.20
2018-03-21T12:42:50.023Z,5.97
2018-03-21T12:45:19.192Z,6.80
2018-03-21T12:47:48.401Z,6.23
2018-03-21T12:50:17.587Z,6.50
2018-03-21T12:52:46.757Z,6.40
2018-03-21T12:55:15.929Z,5.03
2018-03-21T12:57:45.091Z,6.30
2018-03-21T13:00:14.272Z,6.40
2018-03-21T13:02:43.432Z,6.47
2018-03-21T13:05:12.608Z,6.13
2018-03-21T13:07:41.787Z,6.20
2018-03-21T13:10:10.987Z,5.53
2018-03-21T13:12:40.145Z,5.87
2018-03-21T13:15:09.320Z,6.10
2018-03-21T13:17:38.480Z,6.50
2018-03-21T13:20:07.659Z,5.33
2018-03-21T13:22:36.830Z,6.20
2018-03-21T13:25:06.017Z,5.37
2018-03-21T13:27:35.167Z,5.97
2018-03-21T13:30:04.397Z,5.10
2018-03-21T13:32:33.536Z,5.63
2018-03-21T13:35:02.729Z,4.90
2018-03-21T13:37:31.900Z,4.70
2018-03-21T13:40:01.072Z,4.83
2018-03-21T13:42:30.233Z,5.07
2018-03-21T13:44:59.405Z,4.67
2018-03-21T13:47:28.556Z,5.00
2018-03-21T13:49:57.734Z,4.40
2018-03-21T13:52:26.913Z,4.40
2018-03-21T13:54:56.107Z,5.20
2018-03-21T13:57:25.256Z,5.03
2018-03-21T13:59:54.444Z,5.53
2018-03-21T14:02:23.624Z,5.93
2018-03-21T14:04:52.850Z,4.47
2018-03-21T14:07:21.980Z,4.97
2018-03-21T14:09:51.156Z,5.30
2018-03-21T14:12:20.304Z,5.00
2018-03-21T14:14:49.482Z,4.87
2018-03-21T14:17:18.660Z,4.70
2018-03-21T14:19:47.836Z,4.73
2018-03-21T14:22:17.012Z,5.00
2018-03-21T14:24:46.197Z,4.87
2018-03-21T14:27:15.360Z,5.17
2018-03-21T14:29:44.572Z,4.93
2018-03-21T14:32:13.730Z,5.07
2018-03-21T14:34:42.900Z,5.03
2018-03-21T14:37:12.062Z,5.03
2018-03-21T14:39:41.274Z,4.83
2018-03-21T14:42:10.445Z,5.13
2018-03-21T14:44:39.621Z,4.77
2018-03-21T14:47:08.787Z,5.23
2018-03-21T14:49:38.017Z,4.47
2018-03-21T14:52:07.177Z,4.90
2018-03-21T14:54:36.357Z,4.80
2018-03-21T14:57:05.525Z,4.67
2018-03-21T14:59:34.709Z,4.70
2018-03-21T15:02:03.864Z,4.30
2018-03-21T15:04:33.058Z,4.03
2018-03-21T15:07:02.220Z,4.63
2018-03-21T15:09:31.397Z,5.50
2018-03-21T15:12:00.575Z,5.87
2018-03-21T15:14:29.743Z,5.27
2018-03-21T15:16:58.979Z,14.30
2018-03-21T15:19:28.158Z,16.23
2018-03-21T15:21:57.328Z,5.97
2018-03-21T15:24:26.493Z,5.43
2018-03-21T15:26:55.690Z,5.27
2018-03-21T15:29:24.864Z,6.30
2018-03-21T15:31:54.052Z,6.07
2018-03-21T15:34:23.213Z,5.87
2018-03-21T15:36:52.398Z,5.93
2018-03-21T15:39:21.585Z,6.27
2018-03-21T15:41:50.781Z,6.20
2018-03-21T15:44:19.943Z,6.60
2018-03-21T15:46:49.121Z,5.13
2018-03-21T15:49:18.284Z,6.17
2018-03-21T15:51:47.481Z,6.03
2018-03-21T15:54:16.624Z,5.67
2018-03-21T15:56:45.806Z,7.10
2018-03-21T15:59:14.970Z,6.90
2018-03-21T16:01:44.167Z,8.20
2018-03-21T16:04:13.334Z,8.10
2018-03-21T16:06:42.515Z,8.73
2018-03-21T16:09:11.663Z,8.87
2018-03-21T16:11:40.841Z,8.30
2018-03-21T16:14:10.015Z,8.50
2018-03-21T16:16:39.224Z,8.37
2018-03-21T16:19:08.394Z,6.70
2018-03-21T16:21:37.581Z,7.40
2018-03-21T16:24:06.745Z,7.57
2018-03-21T16:26:35.919Z,6.47
2018-03-21T16:29:05.101Z,6.80
2018-03-21T16:31:34.280Z,6.77
2018-03-21T16:34:03.440Z,6.73
2018-03-21T16:36:32.632Z,6.97
2018-03-21T16:39:01.893Z,7.13
2018-03-21T16:41:31.071Z,6.70
2018-03-21T16:44:00.232Z,7.03
2018-03-21T16:46:29.417Z,7.23
2018-03-21T16:48:58.572Z,6.80
2018-03-21T16:51:27.752Z,6.53
2018-03-21T16:53:56.920Z,7.57
2018-03-21T16:56:26.104Z,7.00
2018-03-21T16:58:55.256Z,7.30
2018-03-21T17:01:24.430Z,6.60
2018-03-21T17:03:53.590Z,6.87
2018-03-21T17:06:22.764Z,7.33
2018-03-21T17:08:51.943Z,8.00
2018-03-21T17:11:21.128Z,7.43
2018-03-21T17:13:50.285Z,7.13
2018-03-21T17:16:19.488Z,8.13
2018-03-21T17:18:48.738Z,7.60
2018-03-21T17:21:17.872Z,7.63
2018-03-21T17:23:47.023Z,7.53
2018-03-21T17:26:16.200Z,8.00
2018-03-21T17:28:45.360Z,7.20
2018-03-21T17:31:14.548Z,7.87
2018-03-21T17:33:43.706Z,6.80
2018-03-21T17:36:12.888Z,7.67
2018-03-21T17:38:42.043Z,7.60
2018-03-21T17:41:11.227Z,6.83
2018-03-21T17:43:40.402Z,8.13
2018-03-21T17:46:09.593Z,7.50
2018-03-21T17:48:38.757Z,7.40
2018-03-21T17:51:07.939Z,6.77
2018-03-21T17:53:37.101Z,6.47
2018-03-21T17:56:06.277Z,7.03
2018-03-21T17:58:35.838Z,6.67
2018-03-21T18:01:05.016Z,6.20
2018-03-21T18:03:34.168Z,6.83
2018-03-21T18:06:03.354Z,7.40
2018-03-21T18:08:32.527Z,7.10
2018-03-21T18:11:01.713Z,7.13
2018-03-21T18:13:30.869Z,6.70
2018-03-21T18:16:00.069Z,7.30
2018-03-21T18:18:29.250Z,6.70
2018-03-21T18:20:58.441Z,7.23
2018-03-21T18:23:27.601Z,8.03
2018-03-21T18:25:56.793Z,6.83
2018-03-21T18:28:25.958Z,6.90
2018-03-21T18:30:55.973Z,6.73
2018-03-21T18:33:25.141Z,7.10
2018-03-21T18:35:54.342Z,6.87
2018-03-21T18:38:23.545Z,6.50
2018-03-21T18:40:52.737Z,7.03
2018-03-21T18:43:21.973Z,6.93
2018-03-21T18:45:51.141Z,6.80
2018-03-21T18:48:20.331Z,6.90
2018-03-21T18:50:49.529Z,6.77
2018-03-21T18:53:18.701Z,7.33
2018-03-21T18:55:47.876Z,6.60
2018-03-21T18:58:17.045Z,6.80
2018-03-21T19:00:46.229Z,6.73
2018-03-21T19:03:15.433Z,7.47
2018-03-21T19:05:44.596Z,6.90
2018-03-21T19:08:13.752Z,6.93
2018-03-21T19:10:42.932Z,7.10
2018-03-21T19:13:12.092Z,6.70
2018-03-21T19:15:41.259Z,7.67
2018-03-21T19:18:10.436Z,7.23
2018-03-21T19:20:39.604Z,7.13
2018-03-21T19:25:42.240Z,6.60
2018-03-21T19:28:11.431Z,7.27
2018-03-21T19:30:40.592Z,7.47
2018-03-21T19:33:09.773Z,6.90
2018-03-21T19:35:38.952Z,6.90
2018-03-21T19:38:08.136Z,7.53
2018-03-21T19:40:37.296Z,7.53
2018-03-21T19:43:06.485Z,7.20
2018-03-21T19:45:35.636Z,7.40
2018-03-21T19:48:04.852Z,7.97
2018-03-21T19:50:34.360Z,7.70
2018-03-21T19:53:03.640Z,7.10
2018-03-21T19:55:32.796Z,8.10
2018-03-21T19:58:01.981Z,8.80
2018-03-21T20:00:31.144Z,7.47
2018-03-21T20:03:00.333Z,8.87
2018-03-21T20:05:29.544Z,7.73
2018-03-21T20:07:58.737Z,8.20
2018-03-21T20:10:27.904Z,8.70
2018-03-21T20:12:57.162Z,8.53
2018-03-21T20:15:26.320Z,9.27
2018-03-21T20:17:55.501Z,9.97
2018-03-21T20:20:24.660Z,10.53
2018-03-21T20:22:53.849Z,10.37
2018-03-21T20:25:23.042Z,9.97
2018-03-21T20:27:52.220Z,10.77
2018-03-21T20:30:21.380Z,10.33
2018-03-21T20:32:50.668Z,11.30
2018-03-21T20:35:20.229Z,11.27
2018-03-21T20:37:49.500Z,11.87
2018-03-21T20:40:18.681Z,11.47
2018-03-21T20:42:47.890Z,13.10
2018-03-21T20:45:17.066Z,12.77
2018-03-21T20:47:46.246Z,13.33
2018-03-21T20:50:15.408Z,13.90
2018-03-21T20:52:44.597Z,13.83
2018-03-21T20:55:13.760Z,15.10
2018-03-21T20:57:42.941Z,15.63
2018-03-21T21:00:12.108Z,15.60
2018-03-21T21:02:41.297Z,16.60
2018-03-21T21:05:10.467Z,17.07
2018-03-21T21:07:39.648Z,17.30
2018-03-21T21:10:08.804Z,19.00
2018-03-21T21:12:38.008Z,19.40
2018-03-21T21:15:07.179Z,18.93
2018-03-21T21:17:36.502Z,19.77
2018-03-21T21:20:05.680Z,20.20
2018-03-21T21:22:34.863Z,21.33
2018-03-21T21:25:04.031Z,21.97
2018-03-21T21:27:33.212Z,21.63
2018-03-21T21:30:02.396Z,22.10
2018-03-21T21:32:31.643Z,22.50
2018-03-21T21:35:00.820Z,22.43
2018-03-21T21:37:30.033Z,23.03
2018-03-21T21:39:59.191Z,22.13
2018-03-21T21:42:28.429Z,22.87
2018-03-21T21:44:57.593Z,23.30
2018-03-21T21:47:26.784Z,25.93
2018-03-21T21:49:55.948Z,25.40
2018-03-21T21:52:25.128Z,23.90
2018-03-21T21:54:54.298Z,25.83
2018-03-21T21:57:23.485Z,25.70
2018-03-21T21:59:52.651Z,25.30
2018-03-21T22:02:21.848Z,26.13
2018-03-21T22:04:51.013Z,26.03
2018-03-21T22:07:20.206Z,26.10
2018-03-21T22:09:49.383Z,26.47
2018-03-21T22:12:23.545Z,24.93
2018-03-21T22:14:52.713Z,25.87
2018-03-21T22:17:22.105Z,27.43
2018-03-21T22:19:51.284Z,26.60
2018-03-21T22:22:20.475Z,27.03
2018-03-21T22:24:49.640Z,26.30
2018-03-21T22:27:19.103Z,27.63
2018-03-21T22:29:48.268Z,26.67
2018-03-21T22:32:17.452Z,26.20
2018-03-21T22:34:46.632Z,25.90
2018-03-21T22:37:15.825Z,26.03
2018-03-21T22:39:44.991Z,24.53
2018-03-21T22:42:14.187Z,26.27
2018-03-21T22:44:43.372Z,24.77
2018-03-21T22:47:13.492Z,23.80
2018-03-21T22:49:42.666Z,23.87
2018-03-21T22:52:12.704Z,23.13
2018-03-21T22:54:41.869Z,24.23
2018-03-21T22:57:11.052Z,25.47
2018-03-21T22:59:40.229Z,24.43
2018-03-21T23:02:09.442Z,22.60
2018-03-21T23:04:38.604Z,23.47
2018-03-21T23:07:08.899Z,23.00
2018-03-21T23:09:38.076Z,23.03
2018-03-21T23:12:07.265Z,20.90
2018-03-21T23:14:36.456Z,22.57
2018-03-21T23:17:05.636Z,21.03
2018-03-21T23:19:34.803Z,22.43
2018-03-21T23:22:03.995Z,22.43
2018-03-21T23:24:33.189Z,22.27
2018-03-21T23:27:02.353Z,20.67
2018-03-21T23:29:31.541Z,21.17
2018-03-21T23:32:00.714Z,20.57
2018-03-21T23:34:29.906Z,21.80
2018-03-21T23:37:01.329Z,19.33
2018-03-21T23:39:30.518Z,20.60
2018-03-21T23:41:59.758Z,18.73
2018-03-21T23:44:28.950Z,20.10
2018-03-21T23:46:58.117Z,18.97
2018-03-21T23:49:27.313Z,19.40
2018-03-21T23:51:56.485Z,18.63
2018-03-21T23:54:25.677Z,19.20
2018-03-21T23:56:54.886Z,18.60
2018-03-21T23:59:24.087Z,18.63
